»·PEaware :: N623JB KAVX-KSAN

N623JB :: KAVX-KSAN

FLIGHT INFORMATION

Flight Status: Arrived
Operator: Privately registered:
United States
More flights under this callsign
Pilot: Jonathan B. (32222)
Aircraft: CIRRUS SR-22
(SR22)
More flights by this aircraft type
Origin: KAVX Catalina
United States
Destination: KSAN San Diego Intl-Lindbergh
United States
More flights between these airports :: More routes between these airports
Route: SXC V208 OCN V23 MZB
File this flight plan on PilotEdge
Remarks:
Altitude:
(Current/Filed)
5,000ft
Speed:
(Current/Filed)
150kts
Departed: 04-Dec-20 08:25 AM
Arrived: 04-Dec-20 09:44 AM
Distance/Time
Traveled:
6805nm/1:19
Distance/Time
To Go:
Arrived

Flight Plot

Page will automatically refresh every two minutes.


Map Options




Map Legend


Flown Route
Filed Route
Departure Airport
Arrival Airport
Navaid (VOR, NDB)
Fix

Horizontal Profiles

Position Reports

Time Latitude Longitude Heading Altitude Ground
Speed
04-Dec-20 08:13 33.403761 -118.415310 305 1576ft 0kts
04-Dec-20 08:14 33.403761 -118.415310 305 1576ft 0kts
04-Dec-20 08:15 33.403761 -118.415310 305 1576ft 0kts
04-Dec-20 08:16 33.403761 -118.415310 305 1576ft 0kts
04-Dec-20 08:17 33.403761 -118.415310 305 1576ft 0kts
04-Dec-20 08:18 33.403761 -118.415310 305 1576ft 0kts
04-Dec-20 08:19 33.403661 -118.415141 304 1572ft 0kts
04-Dec-20 08:20 33.403661 -118.415141 304 1572ft 0kts
04-Dec-20 08:21 33.403661 -118.415141 304 1572ft 0kts
04-Dec-20 08:22 33.403772 -118.417192 246 1584ft 12kts
04-Dec-20 08:23 33.402326 -118.419590 259 1601ft 0kts
04-Dec-20 08:24 33.408324 -118.409983 62 1734ft 101kts
04-Dec-20 08:25 33.424569 -118.382427 89 3121ft 105kts
04-Dec-20 08:26 33.409358 -118.390461 225 4157ft 123kts
04-Dec-20 08:27 33.380205 -118.416783 210 4308ft 125kts
04-Dec-20 08:28 33.363746 -118.399016 90 4793ft 112kts
04-Dec-20 08:29 33.364436 -118.358862 88 5077ft 133kts
04-Dec-20 08:30 33.358665 -118.314244 104 5017ft 135kts
04-Dec-20 08:31 33.353161 -118.269921 93 4968ft 134kts
04-Dec-20 08:32 33.347338 -118.226113 100 4992ft 132kts
04-Dec-20 08:33 33.339311 -118.182922 100 4988ft 133kts
04-Dec-20 08:45 33.403636 -118.415538 308 1580ft 0kts
04-Dec-20 08:46 33.403636 -118.415538 308 1580ft 0kts
04-Dec-20 08:47 33.403636 -118.415537 308 1580ft 0kts
04-Dec-20 08:48 33.403635 -118.415536 308 1580ft 0kts
04-Dec-20 08:49 33.403635 -118.415536 308 1580ft 0kts
04-Dec-20 08:50 33.403635 -118.415536 308 1580ft 0kts
04-Dec-20 08:51 33.403635 -118.415536 308 1580ft 0kts
04-Dec-20 08:52 33.403635 -118.415536 308 1580ft 0kts
04-Dec-20 08:53 33.403579 -118.417507 236 1585ft 16kts
04-Dec-20 08:54 33.402320 -118.419606 261 1601ft 0kts
04-Dec-20 08:55 33.403696 -118.418037 53 1587ft 58kts
04-Dec-20 08:56 33.420386 -118.390773 79 2643ft 108kts
04-Dec-20 08:57 33.393938 -118.388914 207 3755ft 130kts
04-Dec-20 08:58 33.368534 -118.413005 137 4693ft 133kts
04-Dec-20 08:59 33.364743 -118.366214 86 4988ft 159kts
04-Dec-20 08:59 33.362962 -118.323021 98 4992ft 151kts
04-Dec-20 09:01 33.355136 -118.266203 97 4998ft 147kts
04-Dec-20 09:02 33.348637 -118.217562 97 4999ft 148kts
04-Dec-20 09:03 33.342166 -118.168767 97 4999ft 148kts
04-Dec-20 09:03 33.336820 -118.128262 97 4999ft 148kts
04-Dec-20 09:05 33.329284 -118.071448 97 4999ft 148kts
04-Dec-20 09:06 33.322805 -118.022719 97 4999ft 148kts
04-Dec-20 09:06 33.317389 -117.982118 97 4999ft 148kts
04-Dec-20 09:08 33.309768 -117.925171 97 4971ft 148kts
04-Dec-20 09:08 33.304330 -117.884669 97 4970ft 148kts
04-Dec-20 09:10 33.296671 -117.827774 97 4970ft 148kts
04-Dec-20 09:10 33.291273 -117.787825 97 4970ft 148kts
04-Dec-20 09:11 33.284682 -117.739230 98 4970ft 147kts
04-Dec-20 09:12 33.277309 -117.691063 98 4970ft 147kts
04-Dec-20 09:13 33.270005 -117.642685 98 4970ft 147kts
04-Dec-20 09:14 33.262744 -117.594650 99 4970ft 147kts
04-Dec-20 09:15 33.256383 -117.546375 96 4970ft 146kts
04-Dec-20 09:16 33.250469 -117.498394 97 4970ft 146kts
04-Dec-20 09:17 33.244620 -117.450327 97 4970ft 146kts
04-Dec-20 09:18 33.229167 -117.408359 151 4971ft 147kts
04-Dec-20 09:20 33.182433 -117.394008 161 4969ft 148kts
04-Dec-20 09:20 33.150266 -117.379090 160 4970ft 150kts
04-Dec-20 09:21 33.110639 -117.362874 159 4963ft 151kts
04-Dec-20 09:22 33.070852 -117.346248 159 4960ft 151kts
04-Dec-20 09:23 33.031086 -117.329549 159 4960ft 151kts
04-Dec-20 09:24 32.991275 -117.312859 159 4960ft 151kts
04-Dec-20 09:25 32.951425 -117.296155 159 4960ft 152kts
04-Dec-20 09:26 32.911488 -117.279433 159 4960ft 152kts
04-Dec-20 09:27 32.871741 -117.262818 159 4960ft 152kts
04-Dec-20 09:28 32.831628 -117.246059 159 4961ft 154kts
04-Dec-20 09:29 32.791318 -117.229224 158 4959ft 153kts
04-Dec-20 09:30 32.770473 -117.188569 104 4978ft 149kts
04-Dec-20 09:31 32.760471 -117.140795 102 4979ft 149kts
04-Dec-20 09:32 32.750984 -117.092952 102 4976ft 148kts
04-Dec-20 09:33 32.741498 -117.045526 102 4970ft 143kts
04-Dec-20 09:34 32.732652 -117.001172 102 4985ft 135kts
04-Dec-20 09:35 32.719927 -116.958602 151 4184ft 138kts
04-Dec-20 09:36 32.689895 -116.971906 242 3848ft 126kts
04-Dec-20 09:37 32.688161 -117.009247 293 3703ft 120kts
04-Dec-20 09:38 32.699562 -117.049460 283 2724ft 122kts
04-Dec-20 09:39 32.708692 -117.087017 285 2026ft 98kts
04-Dec-20 09:40 32.715952 -117.117186 287 1610ft 96kts
04-Dec-20 09:41 32.723265 -117.146400 286 1099ft 87kts
04-Dec-20 09:42 32.729373 -117.172367 286 263ft 76kts
04-Dec-20 09:43 32.733309 -117.187945 309 14ft 23kts
04-Dec-20 09:44 32.733968 -117.188076 25 13ft 0kts
04-Dec-20 09:45 32.734192 -117.187612 88 13ft 10kts
04-Dec-20 09:46 32.733082 -117.182949 105 15ft 18kts
04-Dec-20 09:47 32.733152 -117.179621 13 17ft 8kts
04-Dec-20 09:48 0.000408 0.013975 359 3ft 0kts
04-Dec-20 09:49 0.000408 0.013975 359 3ft 0kts
04-Dec-20 09:50 0.000408 0.013975 359 3ft 0kts

Navigation Log

Ident Type
Flight plan parsing failed, navigation log unavailable